This is the latest recevied weather packets stored in our database for station/object EB1HRW. If no packets are shown the sender has not sent any weather packets the latest 10 day(s).
| Time | Temp. | Humidity | Pressure | Rain* | Wind** | Luminosity | Snow |
|---|---|---|---|---|---|---|---|
| 1777487854 | 13.33° C | 80% | 1008.2 hPa | 0.76 mm | - | - | - |
| 1777486952 | 14.44° C | 81% | 1007.9 hPa | 0.25 mm | - | - | - |
| 1777485154 | 16.11° C | 76% | 1007.6 hPa | 0.25 mm | - | - | - |
| 1777484257 | 16.11° C | 74% | 1006.9 hPa | 0.25 mm | - | - | - |
| 1777483351 | 17.22° C | 74% | 1006.7 hPa | 0.25 mm | - | - | - |
| 1777481553 | 16.11° C | 78% | 1006.9 hPa | 0 mm | - | - | - |
| 1777480649 | 16.11° C | 77% | 1006.7 hPa | 0 mm | - | - | - |
| 1777480592 | 16.11° C | 76% | 1006.7 hPa | 0 mm | - | - | - |
| 1777479232 | 18.89° C | 69% | 1005.8 hPa | 0 mm | - | - | - |
| 1777478332 | 19.44° C | 69% | 1005.8 hPa | 0 mm | - | - | - |
| 1777475747 | 18.89° C | 67% | 1005.6 hPa | 0 mm | - | - | - |
| 1777473951 | 18.89° C | 68% | 1005.7 hPa | 0 mm | - | - | - |
| 1777472146 | 17.78° C | 73% | 1005.7 hPa | 0 mm | - | - | - |
| 1777471247 | 16.67° C | 76% | 1005.8 hPa | 0 mm | - | - | - |
| 1777470349 | 16.11° C | 77% | 1006 hPa | 0 mm | - | - | - |
| 1777469447 | 16.67° C | 75% | 1005.9 hPa | 0 mm | - | - | - |
| 1777466747 | 17.22° C | 75% | 1005.9 hPa | 0 mm | - | - | - |
| 1777464950 | 17.78° C | 74% | 1005.5 hPa | 0 mm | - | - | - |
| 1777464047 | 16.67° C | 79% | 1005.6 hPa | 0 mm | - | - | - |
| 1777462246 | 16.67° C | 77% | 1006.1 hPa | 0 mm | - | - | - |
| 1777461346 | 16.11° C | 81% | 1006 hPa | 0 mm | - | - | - |
| 1777459546 | 15.56° C | 70% | 1006.2 hPa | 0 mm | - | - | - |
| 1777458648 | 15° C | 77% | 1006.1 hPa | 0 mm | - | - | - |
| 1777456846 | 13.89° C | 76% | 1006.3 hPa | 0 mm | - | - | - |
| 1777455950 | 13.89° C | 76% | 1006.2 hPa | 0 mm | - | - | - |
* Rain latest hour (hover to see other rain measurements)
** Current wind speed in m/s (hover to see current wind gust speed)